createdAt,value
2022-11-21T00:04:31.597Z,-4.92
2022-11-21T00:09:34.204Z,-4.99
2022-11-21T00:14:36.120Z,-5.03
2022-11-21T00:19:37.955Z,-5.07
2022-11-21T00:24:39.871Z,-5.12
2022-11-21T00:29:41.754Z,-5.16
2022-11-21T00:34:43.633Z,-5.22
2022-11-21T00:39:45.516Z,-5.26
2022-11-21T00:44:47.359Z,-5.32
2022-11-21T00:49:49.305Z,-5.36
2022-11-21T00:54:51.156Z,-5.38
2022-11-21T00:59:52.991Z,-5.41
2022-11-21T01:04:54.828Z,-5.45
2022-11-21T01:09:56.775Z,-5.47
2022-11-21T01:14:58.682Z,-5.50
2022-11-21T01:20:00.513Z,-5.53
2022-11-21T01:25:02.549Z,-5.56
2022-11-21T01:30:04.958Z,-5.61
2022-11-21T01:35:07.531Z,-5.65
2022-11-21T01:40:10.154Z,-5.68
2022-11-21T01:45:49.276Z,-5.69
2022-11-21T01:50:51.455Z,-5.72
2022-11-21T01:55:54.195Z,-5.74
2022-11-21T02:06:13.386Z,-5.77
2022-11-21T02:11:23.734Z,-5.80
2022-11-21T02:16:26.514Z,-5.83
2022-11-21T02:21:49.786Z,-5.85
2022-11-21T02:26:51.946Z,-5.90
2022-11-21T02:31:54.049Z,-5.91
2022-11-21T02:36:56.433Z,-5.96
2022-11-21T02:42:07.042Z,-5.97
2022-11-21T02:47:08.994Z,-6.03
2022-11-21T02:52:10.996Z,-6.05
2022-11-21T02:57:12.997Z,-6.10
2022-11-21T03:02:14.995Z,-6.12
2022-11-21T03:07:17.062Z,-6.16
2022-11-21T03:12:19.227Z,-6.20
2022-11-21T03:17:21.174Z,-6.25
2022-11-21T03:22:24.120Z,-6.26
2022-11-21T03:27:26.168Z,-6.29
2022-11-21T03:32:28.140Z,-6.29
2022-11-21T03:37:30.135Z,-6.32
2022-11-21T03:42:32.178Z,-6.32
2022-11-21T03:47:34.190Z,-6.34
2022-11-21T03:52:36.130Z,-6.35
2022-11-21T03:57:39.802Z,-6.36
2022-11-21T04:02:41.836Z,-6.38
2022-11-21T04:07:43.858Z,-6.39
2022-11-21T04:12:45.948Z,-6.40
2022-11-21T04:17:47.955Z,-6.41
2022-11-21T04:22:49.911Z,-6.44
2022-11-21T04:27:51.827Z,-6.45
2022-11-21T04:32:54.885Z,-6.46
2022-11-21T04:37:56.837Z,-6.47
2022-11-21T04:42:58.807Z,-6.50
2022-11-21T04:48:00.792Z,-6.50
2022-11-21T04:53:02.969Z,-6.52
2022-11-21T04:58:05.006Z,-6.53
2022-11-21T05:03:07.517Z,-6.53
2022-11-21T05:08:09.512Z,-6.54
2022-11-21T05:13:23.745Z,-6.55
2022-11-21T05:18:25.889Z,-6.56
2022-11-21T05:23:28.298Z,-6.57
2022-11-21T05:28:30.331Z,-6.57
2022-11-21T05:33:32.280Z,-6.58
2022-11-21T05:38:34.280Z,-6.58
2022-11-21T05:43:48.270Z,-6.62
2022-11-21T05:48:51.732Z,-6.62
2022-11-21T05:53:53.674Z,-6.66
2022-11-21T05:58:57.360Z,-6.64
2022-11-21T06:04:01.885Z,-6.66
2022-11-21T06:09:05.014Z,-6.66
2022-11-21T06:14:07.168Z,-6.65
2022-11-21T06:19:09.174Z,-6.65
2022-11-21T06:24:12.568Z,-6.64
2022-11-21T06:29:14.526Z,-6.62
2022-11-21T06:34:16.690Z,-6.61
2022-11-21T06:39:18.655Z,-6.59
2022-11-21T06:44:20.645Z,-6.57
2022-11-21T06:49:22.621Z,-6.55
2022-11-21T06:54:24.637Z,-6.52
2022-11-21T06:59:26.667Z,-6.50
2022-11-21T07:04:29.038Z,-6.48
2022-11-21T07:09:33.630Z,-6.44
2022-11-21T07:14:36.114Z,-6.42
2022-11-21T07:19:40.819Z,-6.38
2022-11-21T07:24:43.131Z,-6.37
2022-11-21T07:29:45.106Z,-6.34
2022-11-21T07:34:47.121Z,-6.30
2022-11-21T07:39:49.186Z,-6.26
2022-11-21T07:44:51.222Z,-6.22
2022-11-21T07:49:53.350Z,-6.19
2022-11-21T07:54:55.298Z,-6.14
2022-11-21T07:59:57.350Z,-6.09
2022-11-21T08:04:59.333Z,-6.04
2022-11-21T08:10:01.330Z,-5.98
2022-11-21T08:15:05.257Z,-5.92
2022-11-21T08:20:08.640Z,-5.86
2022-11-21T08:25:11.437Z,-5.79
2022-11-21T08:30:14.086Z,-5.73
2022-11-21T08:35:16.183Z,-5.66
2022-11-21T08:40:18.221Z,-5.61
2022-11-21T08:45:20.163Z,-5.51
2022-11-21T08:50:23.618Z,-5.46
2022-11-21T08:55:25.646Z,-5.38
2022-11-21T09:00:27.783Z,-5.31
2022-11-21T09:05:29.805Z,-5.24
2022-11-21T09:10:31.854Z,-5.15
2022-11-21T09:15:52.296Z,-5.09
2022-11-21T09:20:54.264Z,-4.98
2022-11-21T09:25:56.508Z,-4.89
2022-11-21T09:30:59.179Z,-4.79
2022-11-21T09:36:01.618Z,-4.70
2022-11-21T09:41:41.804Z,-4.59
2022-11-21T09:46:50.139Z,-4.49
2022-11-21T09:51:53.028Z,-4.41
2022-11-21T09:56:56.632Z,-4.31
2022-11-21T10:01:58.665Z,-4.21
2022-11-21T10:07:12.565Z,-4.14
2022-11-21T10:12:40.110Z,-4.04
2022-11-21T10:18:21.241Z,-3.95
2022-11-21T10:23:25.978Z,-3.86
2022-11-21T10:28:50.892Z,-3.79
2022-11-21T10:33:56.610Z,-3.72
2022-11-21T10:39:12.032Z,-3.65
2022-11-21T10:44:48.127Z,-3.56
2022-11-21T10:49:50.691Z,-3.50
2022-11-21T10:55:05.027Z,-3.42
2022-11-21T11:00:13.026Z,-3.35
2022-11-21T11:05:21.771Z,-3.29
2022-11-21T11:10:27.945Z,-3.23
2022-11-21T11:15:30.368Z,-3.18
2022-11-21T11:20:34.940Z,-3.12
2022-11-21T11:25:37.218Z,-3.06
2022-11-21T11:30:40.162Z,-3.02
2022-11-21T11:35:43.496Z,-2.94
2022-11-21T11:40:46.146Z,-2.90
2022-11-21T11:46:30.614Z,-2.84
2022-11-21T11:51:48.196Z,-2.79
2022-11-21T11:56:51.064Z,-2.74
2022-11-21T12:02:22.402Z,-2.69
2022-11-21T12:13:14.413Z,-2.55
2022-11-21T12:18:16.655Z,-2.49
2022-11-21T12:23:19.947Z,-2.45
2022-11-21T12:28:59.074Z,-2.39
2022-11-21T12:34:16.184Z,-2.32
2022-11-21T12:39:48.137Z,-2.26
2022-11-21T12:44:55.965Z,-2.21
2022-11-21T12:50:37.980Z,-2.14
2022-11-21T12:55:42.265Z,-2.10
2022-11-21T13:00:59.230Z,-2.04
2022-11-21T13:06:03.702Z,-1.99
2022-11-21T13:12:00.924Z,-1.94
2022-11-21T13:17:12.181Z,-1.89
2022-11-21T13:22:35.846Z,-1.84
2022-11-21T13:27:40.017Z,-1.80
2022-11-21T13:32:47.645Z,-1.77
2022-11-21T13:37:52.718Z,-1.70
2022-11-21T13:43:34.675Z,-1.66
2022-11-21T13:49:05.766Z,-1.61
2022-11-21T13:54:55.393Z,-1.57
2022-11-21T14:00:03.747Z,-1.53
2022-11-21T14:05:17.661Z,-1.48
2022-11-21T14:10:25.690Z,-1.44
2022-11-21T14:15:50.474Z,-1.40
2022-11-21T14:20:54.410Z,-1.38
2022-11-21T14:26:02.876Z,-1.35
2022-11-21T14:31:09.197Z,-1.29
2022-11-21T14:36:26.479Z,-1.27
2022-11-21T14:41:32.574Z,-1.23
2022-11-21T14:46:39.690Z,-1.19
2022-11-21T14:51:52.231Z,-1.16
2022-11-21T14:57:03.680Z,-1.13
2022-11-21T15:02:13.743Z,-1.09
2022-11-21T15:07:28.458Z,-1.05
2022-11-21T15:12:36.297Z,-1.03
2022-11-21T15:17:47.748Z,-1.00
2022-11-21T15:23:02.645Z,-0.96
2022-11-21T15:28:04.550Z,-0.94
2022-11-21T15:33:13.698Z,-0.90
2022-11-21T15:38:24.530Z,-0.88
2022-11-21T15:43:52.416Z,-0.83
2022-11-21T15:49:30.867Z,-0.82
2022-11-21T15:54:27.621Z,-0.79
2022-11-21T15:59:30.351Z,-0.74
2022-11-21T16:04:32.590Z,-0.72
2022-11-21T16:09:34.648Z,-0.70
2022-11-21T16:14:36.726Z,-0.66
2022-11-21T16:19:38.744Z,-0.63
2022-11-21T16:24:40.668Z,-0.61
2022-11-21T16:29:42.697Z,-0.58
2022-11-21T16:34:44.825Z,-0.56
2022-11-21T16:39:52.673Z,-0.55
2022-11-21T16:44:55.495Z,-0.51
2022-11-21T16:49:57.979Z,-0.48
2022-11-21T16:55:02.338Z,-0.47
2022-11-21T17:00:05.675Z,-0.45
2022-11-21T17:05:08.375Z,-0.43
2022-11-21T17:10:11.156Z,-0.39
2022-11-21T17:15:15.435Z,-0.39
2022-11-21T17:20:17.658Z,-0.35
2022-11-21T17:25:19.945Z,-0.35
2022-11-21T17:30:22.935Z,-0.32
2022-11-21T17:35:25.246Z,-0.30
2022-11-21T17:40:27.529Z,-0.28
2022-11-21T17:45:29.810Z,-0.25
2022-11-21T17:50:32.177Z,-0.25
2022-11-21T17:55:37.607Z,-0.22
2022-11-21T18:00:39.986Z,-0.21
2022-11-21T18:05:42.540Z,-0.20
2022-11-21T18:10:54.185Z,-0.19
2022-11-21T18:16:01.990Z,-0.16
2022-11-21T18:21:25.103Z,-0.15
2022-11-21T18:26:30.107Z,-0.12
2022-11-21T18:31:32.728Z,-0.12
2022-11-21T18:36:34.889Z,-0.10
2022-11-21T18:41:39.446Z,-0.09
2022-11-21T18:46:41.980Z,-0.07
2022-11-21T18:51:44.890Z,-0.08
2022-11-21T18:56:47.381Z,-0.05
2022-11-21T19:01:54.174Z,-0.03
2022-11-21T19:06:56.372Z,-0.03
2022-11-21T19:11:58.880Z,-0.01
2022-11-21T19:17:01.440Z,0.00
2022-11-21T19:22:05.541Z,0.00
2022-11-21T19:27:08.249Z,0.01
2022-11-21T19:32:11.672Z,0.03
2022-11-21T19:37:14.290Z,0.04
2022-11-21T19:42:19.166Z,0.05
2022-11-21T19:47:21.791Z,0.05
2022-11-21T19:52:27.916Z,0.07
2022-11-21T19:57:31.241Z,0.08
2022-11-21T20:02:33.529Z,0.09
2022-11-21T20:07:36.049Z,0.09
2022-11-21T20:12:38.661Z,0.10
2022-11-21T20:17:41.449Z,0.11
2022-11-21T20:22:43.965Z,0.12
2022-11-21T20:27:46.430Z,0.13
2022-11-21T20:32:48.952Z,0.14
2022-11-21T20:37:51.635Z,0.14
2022-11-21T20:42:54.501Z,0.15
2022-11-21T20:47:57.691Z,0.15
2022-11-21T20:58:22.750Z,0.16
2022-11-21T21:03:25.482Z,0.17
2022-11-21T21:08:28.875Z,0.16
2022-11-21T21:13:31.782Z,0.17
2022-11-21T21:18:35.561Z,0.17
2022-11-21T21:23:38.642Z,0.19
2022-11-21T21:28:41.759Z,0.19
2022-11-21T21:33:43.950Z,0.19
2022-11-21T21:38:51.071Z,0.18
2022-11-21T21:43:54.738Z,0.19
2022-11-21T21:48:58.651Z,0.19
2022-11-21T21:54:00.805Z,0.19
2022-11-21T21:59:02.880Z,0.19
2022-11-21T22:04:06.059Z,0.18
2022-11-21T22:09:08.036Z,0.18
2022-11-21T22:14:15.926Z,0.18
2022-11-21T22:19:18.684Z,0.17
2022-11-21T22:24:25.883Z,0.15
2022-11-21T22:29:28.755Z,0.15
2022-11-21T22:34:32.324Z,0.16
2022-11-21T22:39:34.454Z,0.15
2022-11-21T22:44:36.378Z,0.14
2022-11-21T22:49:38.301Z,0.13
2022-11-21T22:54:40.310Z,0.12
2022-11-21T22:59:42.219Z,0.11
2022-11-21T23:04:44.280Z,0.11
2022-11-21T23:09:46.267Z,0.11
2022-11-21T23:14:48.678Z,0.10
2022-11-21T23:19:50.621Z,0.09
2022-11-21T23:24:52.618Z,0.09
2022-11-21T23:29:54.503Z,0.08
2022-11-21T23:34:56.541Z,0.07
2022-11-21T23:39:58.503Z,0.07
2022-11-21T23:45:00.774Z,0.05
2022-11-21T23:50:02.840Z,0.05
2022-11-21T23:55:05.213Z,0.04
